createdAt,value
2018-08-19T00:02:11.385Z,7.70
2018-08-19T00:04:39.518Z,7.53
2018-08-19T00:07:07.707Z,11.27
2018-08-19T00:09:35.885Z,10.47
2018-08-19T00:12:04.182Z,7.73
2018-08-19T00:14:33.897Z,8.07
2018-08-19T00:17:02.720Z,6.67
2018-08-19T00:19:32.057Z,9.03
2018-08-19T00:22:00.313Z,8.70
2018-08-19T00:24:28.345Z,8.43
2018-08-19T00:26:56.366Z,8.87
2018-08-19T00:29:32.702Z,12.57
2018-08-19T00:32:01.274Z,8.43
2018-08-19T00:34:33.282Z,10.03
2018-08-19T00:37:02.771Z,17.10
2018-08-19T00:39:30.927Z,7.17
2018-08-19T00:42:00.744Z,8.73
2018-08-19T00:44:29.460Z,7.10
2018-08-19T00:46:57.530Z,8.00
2018-08-19T00:49:25.568Z,9.70
2018-08-19T00:51:58.308Z,7.77
2018-08-19T00:54:26.945Z,8.33
2018-08-19T00:56:56.929Z,8.90
2018-08-19T00:59:26.073Z,7.77
2018-08-19T01:01:54.103Z,9.70
2018-08-19T01:04:22.218Z,8.30
2018-08-19T01:06:54.284Z,10.27
2018-08-19T01:09:27.109Z,11.57
2018-08-19T01:11:55.111Z,7.67
2018-08-19T01:14:23.121Z,8.57
2018-08-19T01:16:51.157Z,9.73
2018-08-19T01:19:19.423Z,9.77
2018-08-19T01:21:48.328Z,8.23
2018-08-19T01:24:16.515Z,7.60
2018-08-19T01:26:44.566Z,6.63
2018-08-19T01:29:12.922Z,7.10
2018-08-19T01:31:40.915Z,7.83
2018-08-19T01:34:11.190Z,7.53
2018-08-19T01:36:39.257Z,8.37
2018-08-19T01:39:09.158Z,8.63
2018-08-19T01:41:38.317Z,7.73
2018-08-19T01:44:08.973Z,9.17
2018-08-19T01:46:38.300Z,9.30
2018-08-19T01:49:08.368Z,8.57
2018-08-19T01:51:38.336Z,7.00
2018-08-19T01:54:12.054Z,7.40
2018-08-19T01:56:40.346Z,11.47
2018-08-19T01:59:08.349Z,7.97
2018-08-19T02:01:47.610Z,8.20
2018-08-19T02:04:15.802Z,8.57
2018-08-19T02:06:44.562Z,7.67
2018-08-19T02:09:14.967Z,8.70
2018-08-19T02:11:47.273Z,10.10
2018-08-19T02:14:16.317Z,9.37
2018-08-19T02:16:44.479Z,8.37
2018-08-19T02:19:12.961Z,9.70
2018-08-19T02:21:41.767Z,8.50
2018-08-19T02:24:10.259Z,7.97
2018-08-19T02:26:38.290Z,9.97
2018-08-19T02:29:23.421Z,12.17
2018-08-19T02:31:51.623Z,8.70
2018-08-19T02:34:24.342Z,11.03
2018-08-19T02:36:52.401Z,11.40
2018-08-19T02:39:20.478Z,11.00
2018-08-19T02:41:50.609Z,10.90
2018-08-19T02:44:18.630Z,9.73
2018-08-19T02:46:46.784Z,8.77
2018-08-19T02:49:14.808Z,9.43
2018-08-19T02:51:42.813Z,8.20
2018-08-19T02:54:10.818Z,10.47
2018-08-19T02:56:38.976Z,10.23
2018-08-19T02:59:06.974Z,9.63
2018-08-19T03:01:35.060Z,7.43
2018-08-19T03:04:03.084Z,11.70
2018-08-19T03:06:31.251Z,8.77
2018-08-19T03:09:00.050Z,8.60
2018-08-19T03:11:28.454Z,9.77
2018-08-19T03:13:56.865Z,8.50
2018-08-19T03:16:24.917Z,8.57
2018-08-19T03:18:53.409Z,8.97
2018-08-19T03:21:22.242Z,9.13
2018-08-19T03:23:51.836Z,8.67
2018-08-19T03:26:19.897Z,9.83
2018-08-19T03:28:48.108Z,8.40
2018-08-19T03:31:16.114Z,9.73
2018-08-19T03:33:44.177Z,8.40
2018-08-19T03:36:12.185Z,8.13
2018-08-19T03:38:40.221Z,10.00
2018-08-19T03:41:08.321Z,9.73
2018-08-19T03:43:36.405Z,9.90
2018-08-19T03:46:12.745Z,9.57
2018-08-19T03:48:40.846Z,9.10
2018-08-19T03:51:09.612Z,8.37
2018-08-19T03:53:37.644Z,7.87
2018-08-19T03:56:06.185Z,8.67
2018-08-19T03:58:34.226Z,8.43
2018-08-19T04:01:02.257Z,11.63
2018-08-19T04:03:30.353Z,10.03
2018-08-19T04:05:59.612Z,10.80
2018-08-19T04:08:33.745Z,11.63
2018-08-19T04:11:04.838Z,10.30
2018-08-19T04:13:36.802Z,8.00
2018-08-19T04:16:06.854Z,11.97
2018-08-19T04:18:40.389Z,9.13
2018-08-19T04:21:10.473Z,7.30
2018-08-19T04:23:41.480Z,7.93
2018-08-19T04:26:09.685Z,10.93
2018-08-19T04:28:38.989Z,9.43
2018-08-19T04:31:13.365Z,12.20
2018-08-19T04:33:42.229Z,8.70
2018-08-19T04:36:12.159Z,10.03
2018-08-19T04:38:40.550Z,8.63
2018-08-19T04:41:08.541Z,8.80
2018-08-19T04:43:37.021Z,9.57
2018-08-19T04:46:05.105Z,7.53
2018-08-19T04:48:33.108Z,7.80
2018-08-19T04:51:01.147Z,11.57
2018-08-19T04:53:31.210Z,10.53
2018-08-19T04:55:59.274Z,8.90
2018-08-19T04:58:27.305Z,10.23
2018-08-19T05:00:55.313Z,11.67
2018-08-19T05:03:30.025Z,11.67
2018-08-19T05:05:58.584Z,11.57
2018-08-19T05:08:26.736Z,10.67
2018-08-19T05:10:54.709Z,10.93
2018-08-19T05:13:22.842Z,13.20
2018-08-19T05:15:50.918Z,12.30
2018-08-19T05:18:18.958Z,14.87
2018-08-19T05:20:46.993Z,15.30
2018-08-19T05:23:15.082Z,15.97
2018-08-19T05:25:48.665Z,16.13
2018-08-19T05:28:17.475Z,14.83
2018-08-19T05:30:46.197Z,13.60
2018-08-19T05:33:14.379Z,12.63
2018-08-19T05:35:42.375Z,11.97
2018-08-19T05:38:10.526Z,11.47
2018-08-19T05:40:40.843Z,13.27
2018-08-19T05:43:08.946Z,12.13
2018-08-19T05:45:41.241Z,12.33
2018-08-19T05:48:10.818Z,11.23
2018-08-19T05:50:38.834Z,11.90
2018-08-19T05:53:06.838Z,12.03
2018-08-19T05:55:34.932Z,14.80
2018-08-19T05:58:02.902Z,11.30
2018-08-19T06:00:31.498Z,11.40
2018-08-19T06:03:00.837Z,12.90
2018-08-19T06:05:29.337Z,10.40
2018-08-19T06:08:01.978Z,11.90
2018-08-19T06:10:30.178Z,15.87
2018-08-19T06:12:58.870Z,18.57
2018-08-19T06:15:28.497Z,9.90
2018-08-19T06:17:56.537Z,10.17
2018-08-19T06:20:26.629Z,11.87
2018-08-19T06:22:54.722Z,7.70
2018-08-19T06:25:22.771Z,9.20
2018-08-19T06:27:52.197Z,8.13
2018-08-19T06:30:20.490Z,8.53
2018-08-19T06:32:48.542Z,7.30
2018-08-19T06:35:16.578Z,9.60
2018-08-19T06:37:44.635Z,9.60
2018-08-19T06:40:15.578Z,7.10
2018-08-19T06:42:43.677Z,12.00
2018-08-19T06:45:12.509Z,7.50
2018-08-19T06:47:40.555Z,7.13
2018-08-19T06:50:20.574Z,8.30
2018-08-19T06:52:48.580Z,8.07
2018-08-19T06:55:17.135Z,7.33
2018-08-19T06:57:45.406Z,8.40
2018-08-19T07:00:18.835Z,7.63
2018-08-19T07:02:47.804Z,5.83
2018-08-19T07:05:15.818Z,6.70
2018-08-19T07:07:43.863Z,7.43
2018-08-19T07:10:11.854Z,7.57
2018-08-19T07:12:39.955Z,12.00
2018-08-19T07:15:07.930Z,6.80
2018-08-19T07:17:36.006Z,5.70
2018-08-19T07:20:04.511Z,6.07
2018-08-19T07:22:32.490Z,5.20
2018-08-19T07:25:00.793Z,10.17
2018-08-19T07:27:28.856Z,4.20
2018-08-19T07:29:56.890Z,5.53
2018-08-19T07:32:24.926Z,5.00
2018-08-19T07:34:53.189Z,3.40
2018-08-19T07:37:21.203Z,4.37
2018-08-19T07:39:53.502Z,4.47
2018-08-19T07:42:21.773Z,3.90
2018-08-19T07:44:50.082Z,7.27
2018-08-19T07:47:18.450Z,14.20
2018-08-19T07:49:46.637Z,4.50
2018-08-19T07:52:14.641Z,3.27
2018-08-19T07:54:42.718Z,4.70
2018-08-19T07:57:18.015Z,5.37
2018-08-19T07:59:47.370Z,1.83
2018-08-19T08:02:15.365Z,5.77
2018-08-19T08:04:44.668Z,2.43
2018-08-19T08:07:13.975Z,2.77
2018-08-19T08:09:42.434Z,3.90
2018-08-19T08:12:12.013Z,2.67
2018-08-19T08:14:44.297Z,1.60
2018-08-19T08:17:12.318Z,2.40
2018-08-19T08:19:46.710Z,1.03
2018-08-19T08:22:16.243Z,2.57
2018-08-19T08:24:44.602Z,1.27
2018-08-19T08:27:12.779Z,6.43
2018-08-19T08:29:40.861Z,2.70
2018-08-19T08:32:08.874Z,8.73
2018-08-19T08:34:37.237Z,3.30
2018-08-19T08:37:06.354Z,4.80
2018-08-19T08:39:35.434Z,4.07
2018-08-19T08:42:03.542Z,4.73
2018-08-19T08:44:31.761Z,9.00
2018-08-19T08:47:01.671Z,5.60
2018-08-19T08:49:35.585Z,10.57
2018-08-19T08:52:08.198Z,1.40
2018-08-19T08:54:36.228Z,4.27
2018-08-19T08:57:04.333Z,5.37
2018-08-19T08:59:32.430Z,4.90
2018-08-19T09:02:00.501Z,2.50
2018-08-19T09:04:28.589Z,5.73
2018-08-19T09:06:56.674Z,2.93
2018-08-19T09:09:24.709Z,3.00
2018-08-19T09:11:52.794Z,5.77
2018-08-19T09:14:20.909Z,3.20
2018-08-19T09:16:49.398Z,3.57
2018-08-19T09:19:17.456Z,1.73
2018-08-19T09:21:45.594Z,2.23
2018-08-19T09:24:13.773Z,2.23
2018-08-19T09:26:41.903Z,8.30
2018-08-19T09:29:09.955Z,5.73
2018-08-19T09:31:37.942Z,5.57
2018-08-19T09:34:08.141Z,2.23
2018-08-19T09:36:36.244Z,3.03
2018-08-19T09:39:07.914Z,3.93
2018-08-19T09:41:35.962Z,1.70
2018-08-19T09:44:04.295Z,3.80
2018-08-19T09:46:32.389Z,4.40
2018-08-19T09:49:00.386Z,2.90
2018-08-19T09:51:28.432Z,2.27
2018-08-19T09:53:56.526Z,3.00
2018-08-19T09:56:28.972Z,12.67
2018-08-19T09:59:03.237Z,2.93
2018-08-19T10:01:36.866Z,5.20
2018-08-19T10:04:10.458Z,3.53
2018-08-19T10:06:38.531Z,9.30
2018-08-19T10:09:07.385Z,7.13
2018-08-19T10:11:35.486Z,2.90
2018-08-19T10:14:04.236Z,2.33
2018-08-19T10:16:39.796Z,4.73
2018-08-19T10:19:08.293Z,1.90
2018-08-19T10:21:36.303Z,2.90
2018-08-19T10:24:16.038Z,4.43
2018-08-19T10:26:44.734Z,2.73
2018-08-19T10:29:13.117Z,2.30
2018-08-19T10:31:41.211Z,2.30
2018-08-19T10:34:09.429Z,3.17
2018-08-19T10:36:37.606Z,2.13
2018-08-19T10:39:11.473Z,7.70
2018-08-19T10:41:39.702Z,2.87
2018-08-19T10:44:07.753Z,2.77
2018-08-19T10:46:36.711Z,3.90
2018-08-19T10:49:04.758Z,2.70
2018-08-19T10:51:32.847Z,2.57
2018-08-19T10:54:00.894Z,3.43
2018-08-19T10:56:28.913Z,3.50
2018-08-19T10:58:58.977Z,3.30
2018-08-19T11:01:27.221Z,1.90
2018-08-19T11:03:55.617Z,2.90
2018-08-19T11:06:23.760Z,2.50
2018-08-19T11:08:56.030Z,2.70
2018-08-19T11:11:24.754Z,4.77
2018-08-19T11:13:54.201Z,3.20
2018-08-19T11:16:22.202Z,2.73
2018-08-19T11:18:50.473Z,6.17
2018-08-19T11:21:24.475Z,4.10
2018-08-19T11:23:52.517Z,2.33
2018-08-19T11:26:20.576Z,4.03
2018-08-19T11:28:53.081Z,3.30
2018-08-19T11:31:26.914Z,3.60
2018-08-19T11:33:56.372Z,2.00
2018-08-19T11:36:30.608Z,2.20
2018-08-19T11:38:58.685Z,3.13
2018-08-19T11:41:33.790Z,5.77
2018-08-19T11:44:05.495Z,3.37
2018-08-19T11:46:33.809Z,1.87
2018-08-19T11:49:07.257Z,3.23
2018-08-19T11:51:44.864Z,3.43
2018-08-19T11:54:14.145Z,2.67
2018-08-19T11:56:46.362Z,2.70
2018-08-19T11:59:14.353Z,2.57
2018-08-19T12:01:42.366Z,2.50
2018-08-19T12:04:11.622Z,3.90
2018-08-19T12:06:39.998Z,2.70
2018-08-19T12:09:09.369Z,3.53
2018-08-19T12:11:38.720Z,2.43
2018-08-19T12:14:10.733Z,2.67
2018-08-19T12:16:45.314Z,2.30
2018-08-19T12:19:23.691Z,4.97
2018-08-19T12:22:07.109Z,2.67
2018-08-19T12:24:44.001Z,3.40
2018-08-19T12:27:14.222Z,2.67
2018-08-19T12:29:43.130Z,2.70
2018-08-19T12:32:21.386Z,4.13
2018-08-19T12:34:58.263Z,1.90
2018-08-19T12:37:27.581Z,1.70
2018-08-19T12:39:56.185Z,2.77
2018-08-19T12:42:24.474Z,3.83
2018-08-19T12:44:59.068Z,2.10
2018-08-19T12:47:27.710Z,2.93
2018-08-19T12:49:58.058Z,7.57
2018-08-19T12:52:30.238Z,2.17
2018-08-19T12:55:03.092Z,6.70
2018-08-19T12:57:32.308Z,2.37
2018-08-19T13:00:11.449Z,2.20
2018-08-19T13:02:42.790Z,4.30
2018-08-19T13:05:10.885Z,2.23
2018-08-19T13:07:38.980Z,3.63
2018-08-19T13:10:07.305Z,3.43
2018-08-19T13:12:43.296Z,7.27
2018-08-19T13:15:11.320Z,3.27
2018-08-19T13:17:39.407Z,2.00
2018-08-19T13:20:08.347Z,4.80
2018-08-19T13:22:56.613Z,3.80
2018-08-19T13:25:24.992Z,5.33
2018-08-19T13:27:52.990Z,2.57
2018-08-19T13:30:21.437Z,2.00
2018-08-19T13:32:50.266Z,5.17
2018-08-19T13:35:18.713Z,3.87
2018-08-19T13:37:46.801Z,3.00
2018-08-19T13:40:15.367Z,2.87
2018-08-19T13:42:43.453Z,2.70
2018-08-19T13:45:14.650Z,4.50
2018-08-19T13:47:44.106Z,1.90
2018-08-19T13:50:12.459Z,5.40
2018-08-19T13:52:40.987Z,2.07
2018-08-19T13:55:10.401Z,2.23
2018-08-19T13:57:38.423Z,2.47
2018-08-19T14:00:10.207Z,2.60
2018-08-19T14:02:38.313Z,2.43
2018-08-19T14:05:06.324Z,8.13
2018-08-19T14:07:34.681Z,2.63
2018-08-19T14:10:02.749Z,3.27
2018-08-19T14:12:30.769Z,3.30
2018-08-19T14:14:58.842Z,3.07
2018-08-19T14:17:26.914Z,2.13
2018-08-19T14:19:55.006Z,2.53
2018-08-19T14:22:23.102Z,2.47
2018-08-19T14:24:51.094Z,2.80
2018-08-19T14:27:19.154Z,2.50
2018-08-19T14:29:47.190Z,2.90
2018-08-19T14:32:29.075Z,2.50
2018-08-19T14:34:58.394Z,2.87
2018-08-19T14:37:26.841Z,3.67
2018-08-19T14:39:54.978Z,3.90
2018-08-19T14:42:23.226Z,3.23
2018-08-19T14:44:51.322Z,3.30
2018-08-19T14:47:19.321Z,3.23
2018-08-19T14:49:47.317Z,2.50
2018-08-19T14:52:15.353Z,3.40
2018-08-19T14:54:43.358Z,4.73
2018-08-19T14:57:11.666Z,3.67
2018-08-19T14:59:39.655Z,3.10
2018-08-19T15:02:08.518Z,3.10
2018-08-19T15:04:36.548Z,2.20
2018-08-19T15:07:04.633Z,5.40
2018-08-19T15:09:34.405Z,2.70
2018-08-19T15:12:14.044Z,4.60
2018-08-19T15:14:42.388Z,2.57
2018-08-19T15:17:11.042Z,2.83
2018-08-19T15:19:41.303Z,6.20
2018-08-19T15:22:09.477Z,2.73
2018-08-19T15:24:37.493Z,3.23
2018-08-19T15:27:05.546Z,7.80
2018-08-19T15:29:33.713Z,2.97
2018-08-19T15:32:03.179Z,3.40
2018-08-19T15:34:31.102Z,3.50
2018-08-19T15:36:59.139Z,2.83
2018-08-19T15:39:27.186Z,4.40
2018-08-19T15:41:55.358Z,3.10
2018-08-19T15:44:23.457Z,2.33
2018-08-19T15:46:51.498Z,2.80
2018-08-19T15:49:21.341Z,7.57
2018-08-19T15:51:50.067Z,2.50
2018-08-19T15:54:18.158Z,2.87
2018-08-19T15:56:46.174Z,2.57
2018-08-19T15:59:14.174Z,2.90
2018-08-19T16:01:42.501Z,3.13
2018-08-19T16:04:17.658Z,2.80
2018-08-19T16:06:48.017Z,8.70
2018-08-19T16:09:17.918Z,23.77
2018-08-19T16:11:46.521Z,6.83
2018-08-19T16:14:20.961Z,2.87
2018-08-19T16:16:48.993Z,4.90
2018-08-19T16:19:17.026Z,3.30
2018-08-19T16:21:46.017Z,2.80
2018-08-19T16:24:14.114Z,3.20
2018-08-19T16:26:42.394Z,3.07
2018-08-19T16:29:10.482Z,13.87
2018-08-19T16:31:38.555Z,6.87
2018-08-19T16:34:06.858Z,2.97
2018-08-19T16:36:34.939Z,3.13
2018-08-19T16:39:03.034Z,2.87
2018-08-19T16:41:31.119Z,3.60
2018-08-19T16:43:59.282Z,2.57
2018-08-19T16:46:27.282Z,3.13
2018-08-19T16:48:55.314Z,6.10
2018-08-19T16:51:23.347Z,3.50
2018-08-19T16:53:51.429Z,5.70
2018-08-19T16:56:19.449Z,3.77
2018-08-19T16:58:47.495Z,6.20
2018-08-19T17:01:15.578Z,4.47
2018-08-19T17:03:43.623Z,3.63
2018-08-19T17:06:13.002Z,3.23
2018-08-19T17:08:41.563Z,3.53
2018-08-19T17:11:11.451Z,6.00
2018-08-19T17:13:39.678Z,5.40
2018-08-19T17:16:08.040Z,4.00
2018-08-19T17:18:36.191Z,3.67
2018-08-19T17:21:04.478Z,4.60
2018-08-19T17:23:32.829Z,7.13
2018-08-19T17:26:13.945Z,5.63
2018-08-19T17:28:42.006Z,8.27
2018-08-19T17:31:10.009Z,16.00
2018-08-19T17:33:38.081Z,12.83
2018-08-19T17:36:06.161Z,5.93
2018-08-19T17:38:35.370Z,8.17
2018-08-19T17:41:03.966Z,12.43
2018-08-19T17:43:36.662Z,4.93
2018-08-19T17:46:05.559Z,4.47
2018-08-19T17:48:33.878Z,4.80
2018-08-19T17:51:01.906Z,4.60
2018-08-19T17:53:30.169Z,5.77
2018-08-19T17:55:58.186Z,6.40
2018-08-19T17:58:26.293Z,5.53
2018-08-19T18:00:54.339Z,11.73
2018-08-19T18:03:22.342Z,10.70
2018-08-19T18:05:50.381Z,8.83
2018-08-19T18:08:18.413Z,8.30
2018-08-19T18:10:51.744Z,7.30
2018-08-19T18:13:19.770Z,7.10
2018-08-19T18:15:47.778Z,9.37
2018-08-19T18:18:15.997Z,11.80
2018-08-19T18:20:44.170Z,5.73
2018-08-19T18:23:17.782Z,7.80
2018-08-19T18:25:48.632Z,5.07
2018-08-19T18:28:20.768Z,6.23
2018-08-19T18:30:51.959Z,8.10
2018-08-19T18:33:19.957Z,7.93
2018-08-19T18:35:48.042Z,6.67
2018-08-19T18:38:25.440Z,5.03
2018-08-19T18:40:53.625Z,6.33
2018-08-19T18:43:21.664Z,8.10
2018-08-19T18:45:49.689Z,5.87
2018-08-19T18:48:19.273Z,6.77
2018-08-19T18:50:47.278Z,8.03
2018-08-19T18:53:15.414Z,9.63
2018-08-19T18:55:43.462Z,5.43
2018-08-19T18:58:11.478Z,9.60
2018-08-19T19:00:46.299Z,5.77
2018-08-19T19:03:14.330Z,5.73
2018-08-19T19:05:43.536Z,9.97
2018-08-19T19:08:12.672Z,5.73
2018-08-19T19:10:49.486Z,9.97
2018-08-19T19:13:20.374Z,6.47
2018-08-19T19:15:49.030Z,5.60
2018-08-19T19:18:17.645Z,8.50
2018-08-19T19:20:51.139Z,7.33
2018-08-19T19:23:20.919Z,5.83
2018-08-19T19:25:49.496Z,5.50
2018-08-19T19:28:17.837Z,6.67
2018-08-19T19:30:45.906Z,5.93
2018-08-19T19:33:14.105Z,5.17
2018-08-19T19:35:42.365Z,17.07
2018-08-19T19:38:10.671Z,29.53
2018-08-19T19:40:39.017Z,10.30
2018-08-19T19:43:07.127Z,7.73
2018-08-19T19:45:42.457Z,17.77
2018-08-19T19:48:11.394Z,12.03
2018-08-19T19:50:39.557Z,7.10
2018-08-19T19:53:07.717Z,12.07
2018-08-19T19:55:35.745Z,11.00
2018-08-19T19:58:03.802Z,10.80
2018-08-19T20:00:47.768Z,10.67
2018-08-19T20:03:15.913Z,18.33
2018-08-19T20:05:43.970Z,29.13
2018-08-19T20:08:12.017Z,32.47
2018-08-19T20:10:40.092Z,24.00
2018-08-19T20:13:08.161Z,21.60
2018-08-19T20:15:36.233Z,12.60
2018-08-19T20:18:05.473Z,14.43
2018-08-19T20:20:33.642Z,15.70
2018-08-19T20:23:05.186Z,14.60
2018-08-19T20:25:33.281Z,11.57
2018-08-19T20:28:06.802Z,10.00
2018-08-19T20:30:34.886Z,10.70
2018-08-19T20:33:02.981Z,7.63
2018-08-19T20:35:31.350Z,10.47
2018-08-19T20:37:59.550Z,6.90
2018-08-19T20:40:27.595Z,5.87
2018-08-19T20:42:55.657Z,7.37
2018-08-19T20:45:23.766Z,7.23
2018-08-19T20:47:51.908Z,9.60
2018-08-19T20:50:19.937Z,7.67
2018-08-19T20:52:48.961Z,10.83
2018-08-19T20:55:17.251Z,10.87
2018-08-19T20:57:45.747Z,8.63
2018-08-19T21:00:13.936Z,11.00
2018-08-19T21:02:42.031Z,12.00
2018-08-19T21:05:10.409Z,10.17
2018-08-19T21:07:38.429Z,11.50
2018-08-19T21:10:06.744Z,11.80
2018-08-19T21:12:34.823Z,8.57
2018-08-19T21:15:02.885Z,9.33
2018-08-19T21:17:31.657Z,8.97
2018-08-19T21:19:59.874Z,9.53
2018-08-19T21:22:27.989Z,14.63
2018-08-19T21:24:56.083Z,10.70
2018-08-19T21:27:24.293Z,10.87
2018-08-19T21:29:52.401Z,15.13
2018-08-19T21:32:20.467Z,9.47
2018-08-19T21:34:48.488Z,12.23
2018-08-19T21:37:16.670Z,11.03
2018-08-19T21:39:44.809Z,10.83
2018-08-19T21:42:12.853Z,15.43
2018-08-19T21:44:40.861Z,11.40
2018-08-19T21:47:10.575Z,14.73
2018-08-19T21:49:38.802Z,14.57
2018-08-19T21:52:06.862Z,13.60
2018-08-19T21:54:34.959Z,10.73
2018-08-19T21:57:02.957Z,11.23
2018-08-19T21:59:30.996Z,10.10
2018-08-19T22:02:00.237Z,10.83
2018-08-19T22:04:28.886Z,12.87
2018-08-19T22:06:57.029Z,11.27
2018-08-19T22:09:32.069Z,10.77
2018-08-19T22:12:00.767Z,9.47
2018-08-19T22:14:29.298Z,10.17
2018-08-19T22:17:02.782Z,11.57
2018-08-19T22:19:31.474Z,9.83
2018-08-19T22:21:59.553Z,12.70
2018-08-19T22:24:27.580Z,11.77
2018-08-19T22:26:58.449Z,14.87
2018-08-19T22:29:26.459Z,11.80
2018-08-19T22:31:54.468Z,10.63
2018-08-19T22:34:22.496Z,10.70
2018-08-19T22:36:50.531Z,14.53
2018-08-19T22:39:19.643Z,20.47
2018-08-19T22:41:49.684Z,16.97
2018-08-19T22:44:17.850Z,15.70
2018-08-19T22:46:46.029Z,15.10
2018-08-19T22:49:14.025Z,10.27
2018-08-19T22:51:42.102Z,11.43
2018-08-19T22:54:10.127Z,10.63
2018-08-19T22:56:38.256Z,9.97
2018-08-19T22:59:06.305Z,10.77
2018-08-19T23:01:40.058Z,29.77
2018-08-19T23:04:08.142Z,30.87
2018-08-19T23:06:36.178Z,18.77
2018-08-19T23:09:05.806Z,14.77
2018-08-19T23:11:39.306Z,15.40
2018-08-19T23:14:18.897Z,15.63
2018-08-19T23:16:46.958Z,14.60
2018-08-19T23:19:14.954Z,16.40
2018-08-19T23:21:43.047Z,12.40
2018-08-19T23:24:11.095Z,12.37
2018-08-19T23:26:39.118Z,11.87
2018-08-19T23:29:07.327Z,10.63
2018-08-19T23:31:35.374Z,11.20
2018-08-19T23:34:03.369Z,11.63
2018-08-19T23:36:31.417Z,10.60
2018-08-19T23:38:59.452Z,11.60
2018-08-19T23:41:27.506Z,10.70
2018-08-19T23:43:55.547Z,10.53
2018-08-19T23:46:23.530Z,11.43
2018-08-19T23:48:51.713Z,10.33
2018-08-19T23:51:25.300Z,9.63
2018-08-19T23:53:53.330Z,14.63
2018-08-19T23:56:21.337Z,9.20
2018-08-19T23:58:49.373Z,9.40
